Terminal Aerodrome Forecast
Issued by NWS

Current Version | Previous Version | Text Only | Print | Product List | Glossary On
Versions: 1 2 3 4 5 6 7 8 9 10 11 12 13 14 15
000
FTUS44 KMAF 201918 AAA
TAFFST
TAF AMD
KFST 201918Z 2019/2118 14012G20KT P6SM SCT120
      TEMPO 2020/2024 VRB20G30KT TSRA SCT070CB=

USA.gov is the U.S. government's official web portal to all federal, state and local government web resources and services.